Архив погоды в Корнино

Метеограмма Корнино
Четверг, 16 Августа
Время местн. Темп Ветер Видим Явления Облачность нижн/средн/верх Атм. давл. Влжн Точка росы ВНГО R Сост. почвы Tg s
Напр Скр Прв ур.ст ур.м изм
07:00 +11.4° С-В 2 - 50 км - переменная облачность 763 764 0 73% +6.7° - 0 Влажная (без луж) - -
04:00 +12.4° С 5 - 50 км - облачно с прояснениями 763 764 -0.8 67% +6.4° - - - - -
01:00 +11.6° Ю-В 3 - более 50 км - ясно 763 765 -0.8 71% +6.5° более 2.5 км - - - -
Среда, 15 Августа
Время местн. Темп Ветер Видим Явления Облачность нижн/средн/верх Атм. давл. Влжн Точка росы ВНГО R Сост. почвы Tg s
Напр Скр Прв ур.ст ур.м изм
22:00 +12.6° Ю,Ю-В 4 - 50 км - переменная облачность 764 765 -0.2 66% +6.5° - - - - -
19:00 +13.1° С 6 - 50 км - переменная облачность 764 766 0 67% +7.2° - 0 - - -
16:00 +14.6° С 7 10 50 км - переменная облачность 764 766 -0.4 64% +7.9° более 2.5 км - - - -
13:00 +14.1° С 9 11 50 км - переменная облачность 765 766 -0.5 66% +7.8° - - - - -
10:00 +15.9° С-В 6 11 50 км - облачно с прояснениями 765 766 +0.4 64% +9.2° 1 км - - - -
07:00 +13.6° С 7 13 более 50 км - переменная облачность 765 766 +0.2 72% +8.7° более 2.5 км 0 Влажная (без луж) +9° -
04:00 +13.6° С-В 7 12 50 км - облачно с прояснениями 765 766 -0.2 72% +8.7° 1.5 км - - - -
01:00 +12.7° С,С-В 7 15 более 50 км - облачно с прояснениями 765 766 -0.4 77% +8.7° 1.5 км - - - -
Вторник, 14 Августа
Время местн. Темп Ветер Видим Явления Облачность нижн/средн/верх Атм. давл. Влжн Точка росы ВНГО R Сост. почвы Tg s
Напр Скр Прв ур.ст ур.м изм
22:00 +12.5° С-В 8 11 50 км - облачно с прояснениями 765 766 +0.4 79% +8.9° 1 км - - - -
19:00 +12.5° В 6 14 более 50 км - облачно с прояснениями 765 766 +0.1 79% +8.9° 1.5 км 0.7 - - -
16:00 +12.1° В 7 10 50 км небо без изменений {ливневые осадки} облачно с прояснениями 765 766 -0.1 83% +9.3° 1 км - - - -
13:00 +9.7° С,С-З 1 - 10 км ливневый снег или ливневый снег с дождем облачно 765 766 +0.5 94% +8.8° 600 м - - - -
10:00 +12.4° С 3 - 10 км дымка облачно 764 766 +0.6 84% +9.7° 600 м - - - -
07:00 +9.8° С 2 - 10 км дымка облачно 764 765 +0.8 96% +9.2° 600 м 0 Влажная (без луж) +9° -
04:00 +9.8° С 1 - 4 км дымка {туман} облачно 763 764 +0.7 97% +9.4° 600 м - - - -
01:00 +9.1° С 2 - 4 км дымка {туман} облачно 762 764 +0.5 98% +8.8° 600 м - - - -
Понедельник, 13 Августа
Время местн. Темп Ветер Видим Явления Облачность нижн/средн/верх Атм. давл. Влжн Точка росы ВНГО R Сост. почвы Tg s
Напр Скр Прв ур.ст ур.м изм
22:00 +8.8° Ю-В 1 - 200 м туман неба не видно 762 763 +0.8 98% +8.5° - - - - -
19:00 +9.3° Ю-В 1 - 0.2 км туман усиливается неба не видно 761 762 +0.7 97% +8.9° - 0 - - -
16:00 +11.5° Ю-З 2 - 1 км дымка {туман} облачно 760 762 +0.1 92% +10.3° 600 м - - - -
13:00 +10.1° Ю-В 3 - 0.5 км туман, небо видно облачно 760 762 0 95% +9.3° - - - - -
10:00 +10.4° Ю-З 2 - 4 км дымка облачно 760 762 +0.1 95% +9.7° более 2.5 км - - - -
07:00 +8.5° С-З 1 - 1 км дымка облачно 760 761 +0.2 98% +8.2° 600 м 0 Влажная (без луж) - -
04:00 +7.3° штиль 0 - 1 км дымка облачно 760 761 -0.2 98% +7° 1.5 км - - - -